createdAt,value
2023-02-15T00:00:01.843Z,100
2023-02-15T00:01:01.673Z,100
2023-02-15T00:02:02.004Z,100
2023-02-15T00:03:02.136Z,100
2023-02-15T00:04:01.987Z,100
2023-02-15T00:05:01.938Z,100
2023-02-15T00:06:02.619Z,100
2023-02-15T00:07:01.845Z,100
2023-02-15T00:08:01.813Z,100
2023-02-15T00:09:01.693Z,100
2023-02-15T00:10:01.662Z,100
2023-02-15T00:11:02.593Z,100
2023-02-15T00:12:02.496Z,100
2023-02-15T00:13:02.561Z,100
2023-02-15T00:14:02.494Z,100
2023-02-15T00:15:02.569Z,100
2023-02-15T00:16:03.042Z,100
2023-02-15T00:17:01.653Z,100
2023-02-15T00:18:01.675Z,100
2023-02-15T00:19:01.540Z,100
2023-02-15T00:20:02.572Z,100
2023-02-15T00:21:02.459Z,100
2023-02-15T00:22:02.411Z,100
2023-02-15T00:23:02.387Z,100
2023-02-15T00:24:02.389Z,100
2023-02-15T00:25:02.290Z,100
2023-02-15T00:26:02.809Z,100
2023-02-15T00:27:01.797Z,100
2023-02-15T00:28:01.793Z,100
2023-02-15T00:29:01.601Z,100
2023-02-15T00:30:01.709Z,100
2023-02-15T00:31:01.792Z,100
2023-02-15T00:32:02.276Z,100
2023-02-15T00:33:02.330Z,100
2023-02-15T00:34:02.302Z,100
2023-02-15T00:35:02.172Z,100
2023-02-15T00:36:02.796Z,100
2023-02-15T00:37:02.052Z,100
2023-02-15T00:38:01.928Z,100
2023-02-15T00:39:01.944Z,100
2023-02-15T00:40:01.813Z,100
2023-02-15T00:41:01.795Z,100
2023-02-15T00:42:01.647Z,100
2023-02-15T00:43:01.672Z,100
2023-02-15T00:44:02.645Z,100
2023-02-15T00:45:01.542Z,100
2023-02-15T00:46:03.393Z,100
2023-02-15T00:47:01.921Z,100
2023-02-15T00:48:01.911Z,100
2023-02-15T00:49:01.799Z,100
2023-02-15T00:50:01.793Z,100
2023-02-15T00:51:01.607Z,100
2023-02-15T00:52:01.677Z,100
2023-02-15T00:53:02.639Z,100
2023-02-15T00:54:01.545Z,100
2023-02-15T00:55:02.598Z,100
2023-02-15T00:56:03.361Z,100
2023-02-15T00:57:01.779Z,100
2023-02-15T00:58:01.722Z,100
2023-02-15T00:59:01.617Z,100
2023-02-15T01:00:01.610Z,100
2023-02-15T01:01:02.630Z,100
2023-02-15T01:02:01.750Z,100
2023-02-15T01:03:01.709Z,100
2023-02-15T01:04:01.646Z,100
2023-02-15T01:05:01.650Z,100
2023-02-15T01:06:03.318Z,100
2023-02-15T01:07:02.464Z,100
2023-02-15T01:08:02.553Z,100
2023-02-15T01:09:02.432Z,100
2023-02-15T01:10:02.456Z,100
2023-02-15T01:11:02.320Z,100
2023-02-15T01:12:02.395Z,100
2023-02-15T01:13:02.242Z,100
2023-02-15T01:14:02.272Z,100
2023-02-15T01:15:02.126Z,100
2023-02-15T01:16:03.018Z,100
2023-02-15T01:17:01.810Z,100
2023-02-15T01:18:01.807Z,100
2023-02-15T01:19:01.577Z,100
2023-02-15T01:20:01.641Z,100
2023-02-15T01:21:02.611Z,100
2023-02-15T01:22:02.448Z,100
2023-02-15T01:23:02.529Z,100
2023-02-15T01:24:02.404Z,100
2023-02-15T01:25:02.488Z,100
2023-02-15T01:26:03.076Z,100
2023-02-15T01:27:01.545Z,100
2023-02-15T01:28:02.609Z,100
2023-02-15T01:29:02.525Z,100
2023-02-15T01:30:02.752Z,100
2023-02-15T01:31:01.751Z,100
2023-02-15T01:32:02.142Z,100
2023-02-15T01:33:02.138Z,100
2023-02-15T01:34:01.949Z,100
2023-02-15T01:35:01.927Z,100
2023-02-15T01:36:02.442Z,100
2023-02-15T01:37:01.793Z,100
2023-02-15T01:38:01.756Z,100
2023-02-15T01:39:01.622Z,100
2023-02-15T01:40:01.616Z,100
2023-02-15T01:41:02.575Z,100
2023-02-15T01:42:02.461Z,100
2023-02-15T01:43:02.554Z,100
2023-02-15T01:44:02.413Z,100
2023-02-15T01:45:02.453Z,100
2023-02-15T01:46:02.950Z,100
2023-02-15T01:47:01.551Z,100
2023-02-15T01:48:02.602Z,100
2023-02-15T01:49:01.610Z,100
2023-02-15T01:50:01.705Z,100
2023-02-15T01:51:03.384Z,100
2023-02-15T01:52:01.911Z,100
2023-02-15T01:53:01.876Z,100
2023-02-15T01:54:01.674Z,100
2023-02-15T01:55:01.682Z,100
2023-02-15T01:56:03.288Z,100
2023-02-15T01:57:02.561Z,100
2023-02-15T01:58:02.473Z,100
2023-02-15T01:59:02.441Z,100
2023-02-15T02:00:02.531Z,100
2023-02-15T02:01:02.371Z,100
2023-02-15T02:02:01.568Z,100
2023-02-15T02:03:02.813Z,100
2023-02-15T02:04:01.709Z,100
2023-02-15T02:05:02.086Z,100
2023-02-15T02:06:02.797Z,100
2023-02-15T02:07:02.004Z,100
2023-02-15T02:08:01.982Z,100
2023-02-15T02:09:01.917Z,100
2023-02-15T02:10:01.824Z,100
2023-02-15T02:11:01.651Z,100
2023-02-15T02:12:01.687Z,100
2023-02-15T02:13:01.570Z,100
2023-02-15T02:14:02.618Z,100
2023-02-15T02:15:02.480Z,100
2023-02-15T02:16:03.293Z,100
2023-02-15T02:17:02.525Z,100
2023-02-15T02:18:02.560Z,100
2023-02-15T02:19:02.422Z,100
2023-02-15T02:20:02.478Z,100
2023-02-15T02:21:02.332Z,100
2023-02-15T02:22:02.320Z,100
2023-02-15T02:23:02.285Z,100
2023-02-15T02:24:02.098Z,100
2023-02-15T02:25:02.125Z,100
2023-02-15T02:26:02.784Z,100
2023-02-15T02:27:01.945Z,100
2023-02-15T02:28:01.996Z,100
2023-02-15T02:29:01.802Z,100
2023-02-15T02:30:01.930Z,100
2023-02-15T02:31:02.140Z,100
2023-02-15T02:32:02.204Z,100
2023-02-15T02:33:02.183Z,100
2023-02-15T02:34:02.021Z,100
2023-02-15T02:35:01.940Z,100
2023-02-15T02:36:02.586Z,100
2023-02-15T02:37:02.019Z,100
2023-02-15T02:38:01.942Z,100
2023-02-15T02:39:01.938Z,100
2023-02-15T02:40:01.766Z,100
2023-02-15T02:41:01.901Z,100
2023-02-15T02:42:01.906Z,100
2023-02-15T02:43:01.969Z,100
2023-02-15T02:44:01.721Z,100
2023-02-15T02:45:01.699Z,100
2023-02-15T02:46:02.166Z,100
2023-02-15T02:47:01.909Z,100
2023-02-15T02:48:01.947Z,100
2023-02-15T02:49:01.718Z,100
2023-02-15T02:50:01.733Z,100
2023-02-15T02:51:01.567Z,100
2023-02-15T02:52:02.631Z,100
2023-02-15T02:53:02.509Z,100
2023-02-15T02:54:02.574Z,100
2023-02-15T02:55:02.478Z,100
2023-02-15T02:56:03.162Z,100
2023-02-15T02:57:01.543Z,100
2023-02-15T02:58:02.581Z,100
2023-02-15T02:59:02.401Z,100
2023-02-15T03:00:02.531Z,100
2023-02-15T03:01:02.397Z,100
2023-02-15T03:02:01.724Z,100
2023-02-15T03:03:01.805Z,100
2023-02-15T03:04:01.684Z,100
2023-02-15T03:05:01.657Z,100
2023-02-15T03:06:02.058Z,100
2023-02-15T03:07:01.581Z,100
2023-02-15T03:08:02.602Z,100
2023-02-15T03:09:02.456Z,100
2023-02-15T03:10:02.429Z,100
2023-02-15T03:11:02.276Z,100
2023-02-15T03:12:02.265Z,100
2023-02-15T03:13:02.257Z,100
2023-02-15T03:14:02.069Z,100
2023-02-15T03:15:02.095Z,100
2023-02-15T03:16:02.820Z,100
2023-02-15T03:17:02.145Z,100
2023-02-15T03:18:02.196Z,100
2023-02-15T03:19:01.971Z,100
2023-02-15T03:20:01.884Z,100
2023-02-15T03:21:01.913Z,100
2023-02-15T03:22:01.786Z,100
2023-02-15T03:23:01.729Z,100
2023-02-15T03:24:01.612Z,100
2023-02-15T03:25:02.591Z,100
2023-02-15T03:26:03.337Z,100
2023-02-15T03:27:01.617Z,100
2023-02-15T03:28:01.666Z,100
2023-02-15T03:29:02.590Z,100
2023-02-15T03:30:02.667Z,100
2023-02-15T03:31:02.845Z,100
2023-02-15T03:32:02.217Z,100
2023-02-15T03:33:02.274Z,100
2023-02-15T03:34:02.036Z,100
2023-02-15T03:35:02.013Z,100
2023-02-15T03:36:02.603Z,100
2023-02-15T03:37:01.815Z,100
2023-02-15T03:38:01.770Z,100
2023-02-15T03:39:01.636Z,100
2023-02-15T03:40:01.615Z,100
2023-02-15T03:41:02.560Z,100
2023-02-15T03:42:02.455Z,100
2023-02-15T03:43:02.577Z,100
2023-02-15T03:44:02.487Z,100
2023-02-15T03:45:02.516Z,100
2023-02-15T03:46:03.102Z,100
2023-02-15T03:47:01.613Z,100
2023-02-15T03:48:01.632Z,100
2023-02-15T03:49:02.621Z,100
2023-02-15T03:50:02.431Z,100
2023-02-15T03:51:02.435Z,100
2023-02-15T03:52:02.266Z,100
2023-02-15T03:53:02.419Z,100
2023-02-15T03:54:02.544Z,100
2023-02-15T03:55:02.375Z,100
2023-02-15T03:56:03.005Z,100
2023-02-15T03:57:02.339Z,100
2023-02-15T03:58:02.416Z,100
2023-02-15T03:59:02.269Z,100
2023-02-15T04:00:02.362Z,100
2023-02-15T04:01:02.581Z,100
2023-02-15T04:02:02.399Z,100
2023-02-15T04:03:02.558Z,100
2023-02-15T04:04:02.407Z,100
2023-02-15T04:05:02.470Z,100
2023-02-15T04:06:02.893Z,100
2023-02-15T04:07:02.196Z,100
2023-02-15T04:08:02.252Z,100
2023-02-15T04:09:02.093Z,100
2023-02-15T04:10:02.039Z,100
2023-02-15T04:11:02.020Z,100
2023-02-15T04:12:01.863Z,100
2023-02-15T04:13:01.905Z,100
2023-02-15T04:14:01.711Z,100
2023-02-15T04:15:01.742Z,100
2023-02-15T04:16:02.604Z,100
2023-02-15T04:17:01.685Z,100
2023-02-15T04:18:01.663Z,100
2023-02-15T04:19:01.670Z,100
2023-02-15T04:20:02.597Z,100
2023-02-15T04:21:02.501Z,100
2023-02-15T04:22:02.541Z,100
2023-02-15T04:23:02.422Z,100
2023-02-15T04:24:02.511Z,100
2023-02-15T04:25:02.322Z,100
2023-02-15T04:26:02.981Z,100
2023-02-15T04:27:02.283Z,100
2023-02-15T04:28:02.094Z,100
2023-02-15T04:29:02.158Z,100
2023-02-15T04:30:02.245Z,100
2023-02-15T04:31:02.216Z,100
2023-02-15T04:32:02.220Z,100
2023-02-15T04:33:02.230Z,100
2023-02-15T04:34:02.114Z,100
2023-02-15T04:35:02.061Z,100
2023-02-15T04:36:02.651Z,100
2023-02-15T04:37:01.667Z,100
2023-02-15T04:38:01.666Z,100
2023-02-15T04:39:01.515Z,100
2023-02-15T04:40:02.568Z,100
2023-02-15T04:41:02.475Z,100
2023-02-15T04:42:02.503Z,100
2023-02-15T04:43:02.400Z,100
2023-02-15T04:44:02.439Z,100
2023-02-15T04:45:02.314Z,100
2023-02-15T04:46:03.119Z,100
2023-02-15T04:47:01.769Z,100
2023-02-15T04:48:01.729Z,100
2023-02-15T04:49:01.641Z,100
2023-02-15T04:50:01.552Z,100
2023-02-15T04:51:02.507Z,100
2023-02-15T04:52:02.468Z,100
2023-02-15T04:53:02.385Z,100
2023-02-15T04:54:02.319Z,100
2023-02-15T04:55:02.262Z,100
2023-02-15T04:56:02.831Z,100
2023-02-15T04:57:02.071Z,100
2023-02-15T04:58:02.281Z,100
2023-02-15T04:59:02.112Z,100
2023-02-15T05:00:02.059Z,100
2023-02-15T05:01:02.177Z,100
2023-02-15T05:02:02.424Z,100
2023-02-15T05:03:02.263Z,100
2023-02-15T05:04:02.274Z,100
2023-02-15T05:05:02.254Z,100
2023-02-15T05:06:02.670Z,100
2023-02-15T05:07:02.033Z,100
2023-02-15T05:08:01.858Z,100
2023-02-15T05:09:01.880Z,100
2023-02-15T05:10:01.723Z,100
2023-02-15T05:11:01.680Z,100
2023-02-15T05:12:01.544Z,100
2023-02-15T05:13:02.553Z,100
2023-02-15T05:14:02.535Z,100
2023-02-15T05:15:02.506Z,100
2023-02-15T05:16:03.009Z,100
2023-02-15T05:17:02.372Z,100
2023-02-15T05:18:02.410Z,100
2023-02-15T05:19:02.313Z,100
2023-02-15T05:20:02.312Z,100
2023-02-15T05:21:02.315Z,100
2023-02-15T05:22:02.132Z,100
2023-02-15T05:23:02.158Z,100
2023-02-15T05:24:01.994Z,100
2023-02-15T05:25:01.962Z,100
2023-02-15T05:26:02.562Z,100
2023-02-15T05:27:01.951Z,100
2023-02-15T05:28:05.352Z,100
2023-02-15T05:29:02.231Z,100
2023-02-15T05:30:02.640Z,100
2023-02-15T05:31:02.538Z,100
2023-02-15T05:32:02.074Z,100
2023-02-15T05:33:02.217Z,100
2023-02-15T05:34:02.045Z,100
2023-02-15T05:35:01.952Z,100
2023-02-15T05:36:03.215Z,100
2023-02-15T05:37:01.548Z,100
2023-02-15T05:38:02.560Z,100
2023-02-15T05:39:02.480Z,100
2023-02-15T05:40:02.528Z,100
2023-02-15T05:41:02.392Z,100
2023-02-15T05:42:02.481Z,100
2023-02-15T05:43:02.335Z,100
2023-02-15T05:44:02.276Z,100
2023-02-15T05:45:02.278Z,100
2023-02-15T05:46:02.831Z,100
2023-02-15T05:47:01.640Z,100
2023-02-15T05:48:01.665Z,100
2023-02-15T05:49:02.628Z,100
2023-02-15T05:50:02.512Z,100
2023-02-15T05:51:02.481Z,100
2023-02-15T05:52:02.376Z,100
2023-02-15T05:53:02.456Z,100
2023-02-15T05:54:02.381Z,100
2023-02-15T05:55:02.348Z,100
2023-02-15T05:56:02.899Z,100
2023-02-15T05:57:02.295Z,100
2023-02-15T05:58:02.275Z,100
2023-02-15T05:59:02.229Z,100
2023-02-15T06:00:02.075Z,100
2023-02-15T06:01:02.044Z,100
2023-02-15T06:02:02.027Z,100
2023-02-15T06:03:01.893Z,100
2023-02-15T06:04:01.863Z,100
2023-02-15T06:05:01.785Z,100
2023-02-15T06:06:02.432Z,100
2023-02-15T06:07:01.757Z,100
2023-02-15T06:08:01.741Z,100
2023-02-15T06:09:01.618Z,100
2023-02-15T06:10:01.547Z,100
2023-02-15T06:11:02.512Z,100
2023-02-15T06:12:02.398Z,100
2023-02-15T06:13:02.381Z,100
2023-02-15T06:14:02.273Z,100
2023-02-15T06:15:02.213Z,100
2023-02-15T06:16:02.789Z,100
2023-02-15T06:17:01.758Z,100
2023-02-15T06:18:01.791Z,100
2023-02-15T06:19:01.607Z,100
2023-02-15T06:20:01.632Z,100
2023-02-15T06:21:02.615Z,100
2023-02-15T06:22:02.473Z,100
2023-02-15T06:23:02.485Z,100
2023-02-15T06:24:02.480Z,100
2023-02-15T06:25:02.459Z,100
2023-02-15T06:26:02.898Z,100
2023-02-15T06:27:02.197Z,100
2023-02-15T06:28:02.099Z,100
2023-02-15T06:29:02.011Z,100
2023-02-15T06:30:02.272Z,100
2023-02-15T06:31:02.365Z,100
2023-02-15T06:32:02.438Z,100
2023-02-15T06:33:01.631Z,100
2023-02-15T06:34:01.605Z,100
2023-02-15T06:35:02.529Z,100
2023-02-15T06:36:03.283Z,100
2023-02-15T06:37:01.828Z,100
2023-02-15T06:38:02.523Z,100
2023-02-15T06:39:02.495Z,100
2023-02-15T06:40:04.236Z,100
2023-02-15T06:41:02.019Z,100
2023-02-15T06:42:01.971Z,100
2023-02-15T06:43:01.858Z,100
2023-02-15T06:44:01.844Z,100
2023-02-15T06:45:01.833Z,100
2023-02-15T06:46:02.525Z,100
2023-02-15T06:47:01.540Z,100
2023-02-15T06:48:02.522Z,100
2023-02-15T06:49:02.448Z,100
2023-02-15T06:50:02.489Z,100
2023-02-15T06:51:02.324Z,100
2023-02-15T06:52:02.302Z,100
2023-02-15T06:53:02.237Z,100
2023-02-15T06:54:02.140Z,100
2023-02-15T06:55:02.215Z,100
2023-02-15T06:56:02.961Z,100
2023-02-15T06:57:02.154Z,100
2023-02-15T06:58:02.203Z,100
2023-02-15T06:59:02.037Z,100
2023-02-15T07:00:02.121Z,100
2023-02-15T07:01:02.057Z,100
2023-02-15T07:02:01.994Z,100
2023-02-15T07:03:01.968Z,100
2023-02-15T07:04:01.895Z,100
2023-02-15T07:05:01.859Z,100
2023-02-15T07:06:02.503Z,100
2023-02-15T07:07:02.155Z,100
2023-02-15T07:08:02.026Z,100
2023-02-15T07:09:02.042Z,100
2023-02-15T07:10:01.938Z,100
2023-02-15T07:11:01.952Z,100
2023-02-15T07:12:01.859Z,100
2023-02-15T07:13:01.919Z,100
2023-02-15T07:14:01.730Z,100
2023-02-15T07:15:01.730Z,100
2023-02-15T07:16:02.250Z,100
2023-02-15T07:17:02.129Z,100
2023-02-15T07:18:02.237Z,100
2023-02-15T07:19:02.007Z,100
2023-02-15T07:20:01.979Z,100
2023-02-15T07:21:01.905Z,100
2023-02-15T07:22:01.727Z,100
2023-02-15T07:23:01.728Z,100
2023-02-15T07:24:01.610Z,100
2023-02-15T07:25:01.656Z,100
2023-02-15T07:26:03.152Z,100
2023-02-15T07:27:02.396Z,100
2023-02-15T07:28:02.421Z,100
2023-02-15T07:29:02.364Z,100
2023-02-15T07:30:02.523Z,100
2023-02-15T07:31:02.694Z,100
2023-02-15T07:32:02.410Z,100
2023-02-15T07:33:05.824Z,100
2023-02-15T07:34:01.656Z,100
2023-02-15T07:35:01.695Z,100
2023-02-15T07:36:02.148Z,100
2023-02-15T07:37:01.564Z,100
2023-02-15T07:38:02.545Z,100
2023-02-15T07:39:02.354Z,100
2023-02-15T07:40:02.461Z,100
2023-02-15T07:41:02.275Z,100
2023-02-15T07:42:04.439Z,100
2023-02-15T07:43:02.204Z,100
2023-02-15T07:44:02.141Z,100
2023-02-15T07:45:02.045Z,100
2023-02-15T07:46:02.758Z,100
2023-02-15T07:47:02.256Z,100
2023-02-15T07:48:02.268Z,100
2023-02-15T07:49:02.345Z,100
2023-02-15T07:50:02.134Z,100
2023-02-15T07:51:02.051Z,100
2023-02-15T07:52:02.111Z,100
2023-02-15T07:53:01.934Z,100
2023-02-15T07:54:02.267Z,100
2023-02-15T07:55:02.385Z,100
2023-02-15T07:56:02.941Z,100
2023-02-15T07:57:02.370Z,100
2023-02-15T07:58:02.357Z,100
2023-02-15T07:59:02.248Z,100
2023-02-15T08:00:02.250Z,100
2023-02-15T08:01:02.109Z,100
2023-02-15T08:02:02.216Z,100
2023-02-15T08:03:02.424Z,100
2023-02-15T08:04:02.753Z,100
2023-02-15T08:05:01.693Z,100
2023-02-15T08:06:02.365Z,100
2023-02-15T08:07:01.703Z,100
2023-02-15T08:08:01.702Z,100
2023-02-15T08:09:01.548Z,100
2023-02-15T08:10:01.568Z,100
2023-02-15T08:11:02.553Z,100
2023-02-15T08:12:02.462Z,100
2023-02-15T08:13:02.429Z,100
2023-02-15T08:14:02.325Z,100
2023-02-15T08:15:02.364Z,100
2023-02-15T08:16:03.113Z,100
2023-02-15T08:17:01.750Z,100
2023-02-15T08:18:01.745Z,100
2023-02-15T08:19:01.579Z,100
2023-02-15T08:20:01.691Z,100
2023-02-15T08:21:01.544Z,100
2023-02-15T08:22:01.746Z,100
2023-02-15T08:23:01.628Z,100
2023-02-15T08:24:01.707Z,100
2023-02-15T08:25:01.522Z,100
2023-02-15T08:26:03.346Z,100
2023-02-15T08:27:01.545Z,100
2023-02-15T08:28:02.566Z,100
2023-02-15T08:29:02.446Z,100
2023-02-15T08:30:02.528Z,100
2023-02-15T08:31:03.083Z,100
2023-02-15T08:32:02.337Z,100
2023-02-15T08:33:02.313Z,100
2023-02-15T08:34:02.271Z,100
2023-02-15T08:35:02.157Z,100
2023-02-15T08:36:02.188Z,100
2023-02-15T08:37:02.124Z,100
2023-02-15T08:38:02.091Z,100
2023-02-15T08:39:01.993Z,100
2023-02-15T08:40:01.888Z,100
2023-02-15T08:41:02.519Z,100
2023-02-15T08:42:01.913Z,100
2023-02-15T08:43:01.923Z,100
2023-02-15T08:44:01.817Z,100
2023-02-15T08:45:01.792Z,100
2023-02-15T08:46:01.859Z,100
2023-02-15T08:47:02.007Z,100
2023-02-15T08:48:02.055Z,100
2023-02-15T08:49:02.024Z,100
2023-02-15T08:50:02.061Z,100
2023-02-15T08:51:02.705Z,100
2023-02-15T08:52:02.084Z,100
2023-02-15T08:53:01.903Z,100
2023-02-15T08:54:02.039Z,100
2023-02-15T08:55:01.795Z,100
2023-02-15T08:56:01.790Z,100
2023-02-15T08:57:01.681Z,100
2023-02-15T08:58:01.653Z,100
2023-02-15T08:59:01.591Z,100
2023-02-15T09:00:02.552Z,100
2023-02-15T09:01:03.195Z,100
2023-02-15T09:02:02.464Z,100
2023-02-15T09:03:02.438Z,100
2023-02-15T09:04:02.336Z,100
2023-02-15T09:05:02.430Z,100
2023-02-15T09:06:02.296Z,100
2023-02-15T09:07:02.259Z,100
2023-02-15T09:08:02.122Z,100
2023-02-15T09:09:02.078Z,100
2023-02-15T09:10:02.112Z,100
2023-02-15T09:11:02.820Z,100
2023-02-15T09:12:02.363Z,100
2023-02-15T09:13:02.296Z,100
2023-02-15T09:14:02.259Z,100
2023-02-15T09:15:02.142Z,100
2023-02-15T09:16:02.147Z,100
2023-02-15T09:17:02.435Z,100
2023-02-15T09:18:02.181Z,100
2023-02-15T09:19:02.244Z,100
2023-02-15T09:20:02.124Z,100
2023-02-15T09:21:02.667Z,100
2023-02-15T09:22:02.009Z,100
2023-02-15T09:23:01.819Z,100
2023-02-15T09:24:01.807Z,100
2023-02-15T09:25:01.662Z,100
2023-02-15T09:26:01.693Z,100
2023-02-15T09:27:01.550Z,100
2023-02-15T09:28:02.569Z,100
2023-02-15T09:29:02.427Z,100
2023-02-15T09:30:02.665Z,100
2023-02-15T09:31:02.150Z,100
2023-02-15T09:32:01.922Z,100
2023-02-15T09:33:01.882Z,100
2023-02-15T09:34:01.726Z,100
2023-02-15T09:35:01.723Z,100
2023-02-15T09:36:01.550Z,100
2023-02-15T09:37:02.556Z,100
2023-02-15T09:38:02.435Z,100
2023-02-15T09:39:02.643Z,100
2023-02-15T09:40:02.488Z,100
2023-02-15T09:41:03.193Z,100
2023-02-15T09:42:02.518Z,100
2023-02-15T09:43:02.487Z,100
2023-02-15T09:44:02.412Z,100
2023-02-15T09:45:02.452Z,100
2023-02-15T09:46:02.423Z,100
2023-02-15T09:47:01.547Z,100
2023-02-15T09:48:02.604Z,100
2023-02-15T09:49:02.425Z,100
2023-02-15T09:50:02.473Z,100
2023-02-15T09:51:03.054Z,100
2023-02-15T09:52:01.566Z,100
2023-02-15T09:53:02.551Z,100
2023-02-15T09:54:02.504Z,100
2023-02-15T09:55:02.456Z,100
2023-02-15T09:56:02.344Z,100
2023-02-15T09:57:02.388Z,100
2023-02-15T09:58:02.251Z,100
2023-02-15T09:59:02.266Z,100
2023-02-15T10:00:02.238Z,100
2023-02-15T10:01:02.850Z,100
2023-02-15T10:02:01.801Z,100
2023-02-15T10:03:01.868Z,100
2023-02-15T10:04:01.644Z,100
2023-02-15T10:05:01.675Z,100
2023-02-15T10:06:02.568Z,100
2023-02-15T10:07:02.465Z,100
2023-02-15T10:08:02.496Z,100
2023-02-15T10:09:02.339Z,100
2023-02-15T10:10:02.377Z,100
2023-02-15T10:11:03.007Z,100
2023-02-15T10:12:02.431Z,100
2023-02-15T10:13:02.474Z,100
2023-02-15T10:14:02.310Z,100
2023-02-15T10:15:02.478Z,100
2023-02-15T10:16:02.248Z,97
2023-02-15T10:17:02.314Z,100
2023-02-15T10:18:02.289Z,96
2023-02-15T10:19:02.307Z,94
2023-02-15T10:20:02.157Z,94
2023-02-15T10:21:02.759Z,94
2023-02-15T10:22:02.361Z,93
2023-02-15T10:23:02.196Z,95
2023-02-15T10:24:02.263Z,97
2023-02-15T10:25:02.268Z,94
2023-02-15T10:26:02.768Z,97
2023-02-15T10:27:02.349Z,98
2023-02-15T10:28:02.285Z,100
2023-02-15T10:29:02.144Z,94
2023-02-15T10:30:02.290Z,92
2023-02-15T10:31:03.099Z,91
2023-02-15T10:32:02.424Z,94
2023-02-15T10:33:02.500Z,89
2023-02-15T10:34:02.337Z,92
2023-02-15T10:35:02.333Z,90
2023-02-15T10:36:02.311Z,87
2023-02-15T10:37:02.183Z,91
2023-02-15T10:38:02.210Z,87
2023-02-15T10:39:02.026Z,89
2023-02-15T10:40:02.013Z,86
2023-02-15T10:41:02.719Z,82
2023-02-15T10:42:02.237Z,86
2023-02-15T10:43:02.135Z,83
2023-02-15T10:44:02.209Z,81
2023-02-15T10:45:02.008Z,84
2023-02-15T10:46:02.108Z,84
2023-02-15T10:47:02.214Z,82
2023-02-15T10:48:02.160Z,82
2023-02-15T10:49:02.093Z,84
2023-02-15T10:50:02.034Z,80
2023-02-15T10:51:02.777Z,79
2023-02-15T10:52:02.003Z,77
2023-02-15T10:53:02.011Z,77
2023-02-15T10:54:02.018Z,76
2023-02-15T10:55:01.917Z,79
2023-02-15T10:56:01.966Z,75
2023-02-15T10:57:01.730Z,74
2023-02-15T10:58:01.759Z,72
2023-02-15T10:59:01.622Z,73
2023-02-15T11:00:01.680Z,73
2023-02-15T11:01:02.856Z,72
2023-02-15T11:02:01.609Z,73
2023-02-15T11:03:01.667Z,72
2023-02-15T11:04:02.577Z,72
2023-02-15T11:05:02.713Z,75
2023-02-15T11:06:01.665Z,72
2023-02-15T11:07:02.616Z,71
2023-02-15T11:08:02.470Z,71
2023-02-15T11:09:02.537Z,70
2023-02-15T11:10:02.358Z,71
2023-02-15T11:11:03.086Z,71
2023-02-15T11:12:02.590Z,72
2023-02-15T11:13:02.364Z,71
2023-02-15T11:14:02.373Z,69
2023-02-15T11:15:02.323Z,68
2023-02-15T11:16:02.291Z,68
2023-02-15T11:17:02.334Z,68
2023-02-15T11:18:02.365Z,69
2023-02-15T11:19:02.258Z,69
2023-02-15T11:20:02.133Z,72
2023-02-15T11:21:03.182Z,68
2023-02-15T11:22:01.707Z,68
2023-02-15T11:23:01.739Z,67
2023-02-15T11:24:01.683Z,69
2023-02-15T11:25:01.613Z,68
2023-02-15T11:26:02.612Z,66
2023-02-15T11:27:02.578Z,69
2023-02-15T11:28:02.556Z,70
2023-02-15T11:29:02.408Z,69
2023-02-15T11:30:02.613Z,68
2023-02-15T11:31:03.662Z,66
2023-02-15T11:32:02.419Z,67
2023-02-15T11:33:02.554Z,66
2023-02-15T11:34:02.421Z,67
2023-02-15T11:35:02.393Z,67
2023-02-15T11:36:02.257Z,67
2023-02-15T11:37:02.261Z,69
2023-02-15T11:38:02.271Z,66
2023-02-15T11:39:02.181Z,65
2023-02-15T11:40:01.959Z,65
2023-02-15T11:41:02.593Z,65
2023-02-15T11:42:02.225Z,66
2023-02-15T11:43:02.053Z,65
2023-02-15T11:44:01.858Z,64
2023-02-15T11:45:01.919Z,65
2023-02-15T11:46:01.775Z,63
2023-02-15T11:47:01.926Z,65
2023-02-15T11:48:01.935Z,66
2023-02-15T11:49:01.727Z,64
2023-02-15T11:50:01.759Z,64
2023-02-15T11:51:02.634Z,66
2023-02-15T11:52:02.047Z,63
2023-02-15T11:53:01.984Z,63
2023-02-15T11:54:01.798Z,64
2023-02-15T11:55:02.494Z,63
2023-02-15T11:56:02.384Z,63
2023-02-15T11:57:02.246Z,64
2023-02-15T11:58:02.325Z,64
2023-02-15T11:59:02.118Z,66
2023-02-15T12:00:02.301Z,64
2023-02-15T12:01:02.932Z,62
2023-02-15T12:02:02.532Z,63
2023-02-15T12:03:02.530Z,62
2023-02-15T12:04:02.474Z,61
2023-02-15T12:05:02.466Z,62
2023-02-15T12:06:02.275Z,62
2023-02-15T12:07:02.954Z,62
2023-02-15T12:08:01.723Z,63
2023-02-15T12:09:01.752Z,63
2023-02-15T12:10:01.636Z,64
2023-02-15T12:11:03.367Z,66
2023-02-15T12:12:01.667Z,63
2023-02-15T12:13:01.679Z,67
2023-02-15T12:14:01.555Z,63
2023-02-15T12:15:01.643Z,62
2023-02-15T12:16:02.572Z,66
2023-02-15T12:17:01.730Z,64
2023-02-15T12:18:01.664Z,63
2023-02-15T12:19:01.613Z,61
2023-02-15T12:20:02.598Z,62
2023-02-15T12:21:02.965Z,62
2023-02-15T12:22:02.160Z,61
2023-02-15T12:23:02.153Z,61
2023-02-15T12:24:02.041Z,60
2023-02-15T12:25:01.986Z,61
2023-02-15T12:26:02.036Z,62
2023-02-15T12:27:01.900Z,60
2023-02-15T12:28:01.933Z,60
2023-02-15T12:29:01.795Z,60
2023-02-15T12:30:02.724Z,61
2023-02-15T12:31:02.253Z,60
2023-02-15T12:32:02.029Z,60
2023-02-15T12:33:02.082Z,60
2023-02-15T12:34:01.958Z,60
2023-02-15T12:35:01.999Z,61
2023-02-15T12:36:02.631Z,59
2023-02-15T12:37:01.970Z,59
2023-02-15T12:38:01.902Z,58
2023-02-15T12:39:01.941Z,58
2023-02-15T12:40:01.840Z,59
2023-02-15T12:41:02.429Z,57
2023-02-15T12:42:01.867Z,59
2023-02-15T12:43:02.047Z,59
2023-02-15T12:44:01.713Z,57
2023-02-15T12:45:01.738Z,58
2023-02-15T12:46:02.337Z,57
2023-02-15T12:47:01.850Z,58
2023-02-15T12:48:01.989Z,59
2023-02-15T12:49:01.786Z,60
2023-02-15T12:50:01.743Z,59
2023-02-15T12:51:01.606Z,59
2023-02-15T12:52:01.759Z,58
2023-02-15T12:53:01.549Z,58
2023-02-15T12:54:01.669Z,57
2023-02-15T12:55:02.610Z,57
2023-02-15T12:56:02.472Z,57
2023-02-15T12:57:02.466Z,60
2023-02-15T12:58:02.339Z,58
2023-02-15T12:59:02.349Z,58
2023-02-15T13:00:02.314Z,57
2023-02-15T13:01:03.004Z,56
2023-02-15T13:02:01.854Z,56
2023-02-15T13:03:01.730Z,57
2023-02-15T13:04:01.631Z,58
2023-02-15T13:05:01.659Z,57
2023-02-15T13:06:01.532Z,58
2023-02-15T13:07:02.639Z,57
2023-02-15T13:08:02.511Z,57
2023-02-15T13:09:02.389Z,57
2023-02-15T13:10:02.386Z,58
2023-02-15T13:11:03.194Z,57
2023-02-15T13:12:02.525Z,59
2023-02-15T13:13:02.514Z,56
2023-02-15T13:14:02.474Z,56
2023-02-15T13:15:02.386Z,56
2023-02-15T13:16:02.365Z,56
2023-02-15T13:17:01.606Z,56
2023-02-15T13:18:01.667Z,56
2023-02-15T13:19:02.643Z,56
2023-02-15T13:20:02.503Z,56
2023-02-15T13:21:03.169Z,56
2023-02-15T13:22:02.438Z,56
2023-02-15T13:23:02.529Z,56
2023-02-15T13:24:02.473Z,56
2023-02-15T13:25:02.450Z,56
2023-02-15T13:26:02.340Z,54
2023-02-15T13:27:16.109Z,55
2023-02-15T13:28:02.034Z,54
2023-02-15T13:29:02.106Z,55
2023-02-15T13:30:02.484Z,55
2023-02-15T13:31:03.095Z,55
2023-02-15T13:32:02.001Z,54
2023-02-15T13:33:02.061Z,54
2023-02-15T13:34:01.931Z,55
2023-02-15T13:35:01.981Z,55
2023-02-15T13:36:02.309Z,54
2023-02-15T13:37:02.228Z,54
2023-02-15T13:38:02.249Z,54
2023-02-15T13:39:02.269Z,53
2023-02-15T13:40:02.125Z,53
2023-02-15T13:41:03.052Z,53
2023-02-15T13:42:02.528Z,53
2023-02-15T13:43:02.396Z,53
2023-02-15T13:44:02.456Z,53
2023-02-15T13:45:02.375Z,58
2023-02-15T13:46:03.354Z,54
2023-02-15T13:47:02.022Z,53
2023-02-15T13:48:01.996Z,52
2023-02-15T13:49:02.043Z,52
2023-02-15T13:50:01.889Z,53
2023-02-15T13:51:01.857Z,52
2023-02-15T13:52:01.671Z,53
2023-02-15T13:53:01.817Z,53